sensor_id;sensor_type;location;lat;lon;timestamp;temperature;humidity
25320;DHT22;13256;49.012;8.610;2024-02-28T00:02:08;7.40;99.90
25320;DHT22;13256;49.012;8.610;2024-02-28T00:04:34;7.40;99.90
25320;DHT22;13256;49.012;8.610;2024-02-28T00:07:01;7.40;99.90
25320;DHT22;13256;49.012;8.610;2024-02-28T00:09:27;7.30;99.90
25320;DHT22;13256;49.012;8.610;2024-02-28T00:11:56;7.30;99.90
25320;DHT22;13256;49.012;8.610;2024-02-28T00:14:22;7.20;99.90
25320;DHT22;13256;49.012;8.610;2024-02-28T00:16:49;7.10;99.90
25320;DHT22;13256;49.012;8.610;2024-02-28T00:19:17;7.10;99.90
25320;DHT22;13256;49.012;8.610;2024-02-28T00:21:46;7.00;99.90
25320;DHT22;13256;49.012;8.610;2024-02-28T00:24:20;7.00;99.90
25320;DHT22;13256;49.012;8.610;2024-02-28T00:26:49;6.90;99.90
25320;DHT22;13256;49.012;8.610;2024-02-28T00:29:15;6.90;99.90
25320;DHT22;13256;49.012;8.610;2024-02-28T00:31:42;6.90;99.90
25320;DHT22;13256;49.012;8.610;2024-02-28T00:36:38;6.60;99.90
25320;DHT22;13256;49.012;8.610;2024-02-28T00:39:21;6.50;99.90
25320;DHT22;13256;49.012;8.610;2024-02-28T00:41:49;6.50;99.90
25320;DHT22;13256;49.012;8.610;2024-02-28T00:44:16;6.50;99.90
25320;DHT22;13256;49.012;8.610;2024-02-28T00:46:43;6.50;99.90
25320;DHT22;13256;49.012;8.610;2024-02-28T00:52:30;6.40;99.90
25320;DHT22;13256;49.012;8.610;2024-02-28T00:54:58;6.40;99.90
25320;DHT22;13256;49.012;8.610;2024-02-28T00:57:27;6.40;99.90
25320;DHT22;13256;49.012;8.610;2024-02-28T00:59:55;6.40;99.90
25320;DHT22;13256;49.012;8.610;2024-02-28T01:02:21;6.30;99.90
25320;DHT22;13256;49.012;8.610;2024-02-28T01:04:50;6.20;99.90
25320;DHT22;13256;49.012;8.610;2024-02-28T01:07:17;6.10;99.90
25320;DHT22;13256;49.012;8.610;2024-02-28T01:09:44;5.90;99.90
25320;DHT22;13256;49.012;8.610;2024-02-28T01:12:11;5.80;99.90
25320;DHT22;13256;49.012;8.610;2024-02-28T01:14:40;5.70;99.90
25320;DHT22;13256;49.012;8.610;2024-02-28T01:17:07;5.70;99.90
25320;DHT22;13256;49.012;8.610;2024-02-28T01:19:36;5.60;99.90
25320;DHT22;13256;49.012;8.610;2024-02-28T01:22:02;5.60;99.90
25320;DHT22;13256;49.012;8.610;2024-02-28T01:24:29;5.60;99.90
25320;DHT22;13256;49.012;8.610;2024-02-28T01:26:57;5.50;99.90
25320;DHT22;13256;49.012;8.610;2024-02-28T01:29:26;5.40;99.90
25320;DHT22;13256;49.012;8.610;2024-02-28T01:31:52;5.30;99.90
25320;DHT22;13256;49.012;8.610;2024-02-28T01:34:19;5.20;99.90
25320;DHT22;13256;49.012;8.610;2024-02-28T01:36:46;5.10;99.90
25320;DHT22;13256;49.012;8.610;2024-02-28T01:39:12;5.00;99.90
25320;DHT22;13256;49.012;8.610;2024-02-28T01:41:39;5.00;99.90
25320;DHT22;13256;49.012;8.610;2024-02-28T01:44:10;4.90;99.90
25320;DHT22;13256;49.012;8.610;2024-02-28T01:46:38;4.90;99.90
25320;DHT22;13256;49.012;8.610;2024-02-28T01:49:05;4.90;99.90
25320;DHT22;13256;49.012;8.610;2024-02-28T01:51:32;4.90;99.90
25320;DHT22;13256;49.012;8.610;2024-02-28T01:53:59;4.90;99.90
25320;DHT22;13256;49.012;8.610;2024-02-28T01:56:25;5.00;99.90
25320;DHT22;13256;49.012;8.610;2024-02-28T01:58:56;5.00;99.90
25320;DHT22;13256;49.012;8.610;2024-02-28T02:01:22;4.90;99.90
25320;DHT22;13256;49.012;8.610;2024-02-28T02:03:52;4.80;99.90
25320;DHT22;13256;49.012;8.610;2024-02-28T02:06:20;4.80;99.90
25320;DHT22;13256;49.012;8.610;2024-02-28T02:08:46;4.80;99.90
25320;DHT22;13256;49.012;8.610;2024-02-28T02:11:17;4.90;99.90
25320;DHT22;13256;49.012;8.610;2024-02-28T02:13:48;4.90;99.90
25320;DHT22;13256;49.012;8.610;2024-02-28T02:16:15;4.90;99.90
25320;DHT22;13256;49.012;8.610;2024-02-28T02:18:41;4.90;99.90
25320;DHT22;13256;49.012;8.610;2024-02-28T02:21:13;4.90;99.90
25320;DHT22;13256;49.012;8.610;2024-02-28T02:23:46;4.90;99.90
25320;DHT22;13256;49.012;8.610;2024-02-28T02:26:12;4.90;99.90
25320;DHT22;13256;49.012;8.610;2024-02-28T02:28:39;4.90;99.90
25320;DHT22;13256;49.012;8.610;2024-02-28T02:31:06;4.90;99.90
25320;DHT22;13256;49.012;8.610;2024-02-28T02:33:33;4.90;99.90
25320;DHT22;13256;49.012;8.610;2024-02-28T02:36:00;4.70;99.90
25320;DHT22;13256;49.012;8.610;2024-02-28T02:38:31;4.60;99.90
25320;DHT22;13256;49.012;8.610;2024-02-28T02:40:57;4.50;99.90
25320;DHT22;13256;49.012;8.610;2024-02-28T02:43:24;4.40;99.90
25320;DHT22;13256;49.012;8.610;2024-02-28T02:45:50;4.30;99.90
25320;DHT22;13256;49.012;8.610;2024-02-28T02:48:21;4.30;99.90
25320;DHT22;13256;49.012;8.610;2024-02-28T02:50:52;4.20;99.90
25320;DHT22;13256;49.012;8.610;2024-02-28T02:53:19;4.10;99.90
25320;DHT22;13256;49.012;8.610;2024-02-28T02:55:46;4.10;99.90
25320;DHT22;13256;49.012;8.610;2024-02-28T02:58:15;4.00;99.90
25320;DHT22;13256;49.012;8.610;2024-02-28T03:00:42;3.90;99.90
25320;DHT22;13256;49.012;8.610;2024-02-28T03:03:08;3.80;99.90
25320;DHT22;13256;49.012;8.610;2024-02-28T03:05:37;3.70;99.90
25320;DHT22;13256;49.012;8.610;2024-02-28T03:08:05;3.70;99.90
25320;DHT22;13256;49.012;8.610;2024-02-28T03:10:43;3.70;99.90
25320;DHT22;13256;49.012;8.610;2024-02-28T03:13:11;3.70;99.90
25320;DHT22;13256;49.012;8.610;2024-02-28T03:15:40;3.70;99.90
25320;DHT22;13256;49.012;8.610;2024-02-28T03:18:07;3.70;99.90
25320;DHT22;13256;49.012;8.610;2024-02-28T03:20:34;3.70;99.90
25320;DHT22;13256;49.012;8.610;2024-02-28T03:23:03;3.70;99.90
25320;DHT22;13256;49.012;8.610;2024-02-28T03:25:32;3.60;99.90
25320;DHT22;13256;49.012;8.610;2024-02-28T03:27:59;3.70;99.90
25320;DHT22;13256;49.012;8.610;2024-02-28T03:30:26;3.70;99.90
25320;DHT22;13256;49.012;8.610;2024-02-28T03:32:52;3.70;99.90
25320;DHT22;13256;49.012;8.610;2024-02-28T03:35:19;3.70;99.90
25320;DHT22;13256;49.012;8.610;2024-02-28T03:37:45;3.70;99.90
25320;DHT22;13256;49.012;8.610;2024-02-28T03:40:12;3.70;99.90
25320;DHT22;13256;49.012;8.610;2024-02-28T03:42:41;3.80;99.90
25320;DHT22;13256;49.012;8.610;2024-02-28T03:45:08;3.80;99.90
25320;DHT22;13256;49.012;8.610;2024-02-28T03:47:34;3.80;99.90
25320;DHT22;13256;49.012;8.610;2024-02-28T03:50:01;3.90;99.90
25320;DHT22;13256;49.012;8.610;2024-02-28T03:52:32;3.90;99.90
25320;DHT22;13256;49.012;8.610;2024-02-28T03:54:59;3.90;99.90
25320;DHT22;13256;49.012;8.610;2024-02-28T03:57:27;3.90;99.90
25320;DHT22;13256;49.012;8.610;2024-02-28T03:59:55;3.90;99.90
25320;DHT22;13256;49.012;8.610;2024-02-28T04:02:22;4.00;99.90
25320;DHT22;13256;49.012;8.610;2024-02-28T04:04:48;4.00;99.90
25320;DHT22;13256;49.012;8.610;2024-02-28T04:07:17;4.10;99.90
25320;DHT22;13256;49.012;8.610;2024-02-28T04:09:43;4.10;99.90
25320;DHT22;13256;49.012;8.610;2024-02-28T04:12:10;4.10;99.90
25320;DHT22;13256;49.012;8.610;2024-02-28T04:14:40;4.10;99.90
25320;DHT22;13256;49.012;8.610;2024-02-28T04:17:07;4.20;99.90
25320;DHT22;13256;49.012;8.610;2024-02-28T04:19:37;4.30;99.90
25320;DHT22;13256;49.012;8.610;2024-02-28T04:22:08;4.30;99.90
25320;DHT22;13256;49.012;8.610;2024-02-28T04:24:41;4.40;99.90
25320;DHT22;13256;49.012;8.610;2024-02-28T04:27:10;4.40;99.90
25320;DHT22;13256;49.012;8.610;2024-02-28T04:29:42;4.40;99.90
25320;DHT22;13256;49.012;8.610;2024-02-28T04:32:09;4.40;99.90
25320;DHT22;13256;49.012;8.610;2024-02-28T04:34:35;4.40;99.90
25320;DHT22;13256;49.012;8.610;2024-02-28T04:37:03;4.50;99.90
25320;DHT22;13256;49.012;8.610;2024-02-28T04:39:30;4.60;99.90
25320;DHT22;13256;49.012;8.610;2024-02-28T04:41:59;4.60;99.90
25320;DHT22;13256;49.012;8.610;2024-02-28T04:44:26;4.60;99.90
25320;DHT22;13256;49.012;8.610;2024-02-28T04:46:53;4.70;99.90
25320;DHT22;13256;49.012;8.610;2024-02-28T04:49:22;4.80;99.90
25320;DHT22;13256;49.012;8.610;2024-02-28T04:51:51;4.80;99.90
25320;DHT22;13256;49.012;8.610;2024-02-28T04:54:24;4.80;99.90
25320;DHT22;13256;49.012;8.610;2024-02-28T04:56:50;4.90;99.90
25320;DHT22;13256;49.012;8.610;2024-02-28T04:59:17;4.90;99.90
25320;DHT22;13256;49.012;8.610;2024-02-28T05:01:46;4.90;99.90
25320;DHT22;13256;49.012;8.610;2024-02-28T05:04:13;4.90;99.90
25320;DHT22;13256;49.012;8.610;2024-02-28T05:06:42;5.00;99.90
25320;DHT22;13256;49.012;8.610;2024-02-28T05:09:09;5.00;99.90
25320;DHT22;13256;49.012;8.610;2024-02-28T05:11:37;5.00;99.90
25320;DHT22;13256;49.012;8.610;2024-02-28T05:14:04;5.10;99.90
25320;DHT22;13256;49.012;8.610;2024-02-28T05:16:31;5.10;99.90
25320;DHT22;13256;49.012;8.610;2024-02-28T05:18:58;5.20;99.90
25320;DHT22;13256;49.012;8.610;2024-02-28T05:21:25;5.20;99.90
25320;DHT22;13256;49.012;8.610;2024-02-28T05:23:52;5.10;99.90
25320;DHT22;13256;49.012;8.610;2024-02-28T05:26:18;5.10;99.90
25320;DHT22;13256;49.012;8.610;2024-02-28T05:28:48;5.10;99.90
25320;DHT22;13256;49.012;8.610;2024-02-28T05:31:24;5.10;99.90
25320;DHT22;13256;49.012;8.610;2024-02-28T05:33:52;5.10;99.90
25320;DHT22;13256;49.012;8.610;2024-02-28T05:36:19;5.10;99.90
25320;DHT22;13256;49.012;8.610;2024-02-28T05:38:47;5.10;99.90
25320;DHT22;13256;49.012;8.610;2024-02-28T05:41:17;5.10;99.90
25320;DHT22;13256;49.012;8.610;2024-02-28T05:43:45;5.00;99.90
25320;DHT22;13256;49.012;8.610;2024-02-28T05:46:12;5.00;99.90
25320;DHT22;13256;49.012;8.610;2024-02-28T05:48:42;5.00;99.90
25320;DHT22;13256;49.012;8.610;2024-02-28T05:51:10;5.00;99.90
25320;DHT22;13256;49.012;8.610;2024-02-28T05:53:39;5.00;99.90
25320;DHT22;13256;49.012;8.610;2024-02-28T05:56:08;5.00;99.90
25320;DHT22;13256;49.012;8.610;2024-02-28T05:58:46;5.00;99.90
25320;DHT22;13256;49.012;8.610;2024-02-28T06:01:16;4.90;99.90
25320;DHT22;13256;49.012;8.610;2024-02-28T06:03:47;4.90;99.90
25320;DHT22;13256;49.012;8.610;2024-02-28T06:06:17;4.90;99.90
25320;DHT22;13256;49.012;8.610;2024-02-28T06:08:44;4.90;99.90
25320;DHT22;13256;49.012;8.610;2024-02-28T06:11:15;4.90;99.90
25320;DHT22;13256;49.012;8.610;2024-02-28T06:13:43;4.80;99.90
25320;DHT22;13256;49.012;8.610;2024-02-28T06:16:16;4.80;99.90
25320;DHT22;13256;49.012;8.610;2024-02-28T06:18:44;4.70;99.90
25320;DHT22;13256;49.012;8.610;2024-02-28T06:21:12;4.70;99.90
25320;DHT22;13256;49.012;8.610;2024-02-28T06:23:39;4.60;99.90
25320;DHT22;13256;49.012;8.610;2024-02-28T06:26:09;4.60;99.90
25320;DHT22;13256;49.012;8.610;2024-02-28T06:28:43;4.60;99.90
25320;DHT22;13256;49.012;8.610;2024-02-28T06:31:14;4.60;99.90
25320;DHT22;13256;49.012;8.610;2024-02-28T06:33:40;4.50;99.90
25320;DHT22;13256;49.012;8.610;2024-02-28T06:36:07;4.40;99.90
25320;DHT22;13256;49.012;8.610;2024-02-28T06:38:34;4.40;99.90
25320;DHT22;13256;49.012;8.610;2024-02-28T06:41:11;4.30;99.90
25320;DHT22;13256;49.012;8.610;2024-02-28T06:43:38;4.40;99.90
25320;DHT22;13256;49.012;8.610;2024-02-28T06:46:06;4.20;99.90
25320;DHT22;13256;49.012;8.610;2024-02-28T06:48:33;4.10;99.90
25320;DHT22;13256;49.012;8.610;2024-02-28T06:51:00;4.10;99.90
25320;DHT22;13256;49.012;8.610;2024-02-28T06:53:29;4.10;99.90
25320;DHT22;13256;49.012;8.610;2024-02-28T06:56:01;4.10;99.90
25320;DHT22;13256;49.012;8.610;2024-02-28T06:58:28;4.10;99.90
25320;DHT22;13256;49.012;8.610;2024-02-28T07:00:55;4.10;99.90
25320;DHT22;13256;49.012;8.610;2024-02-28T07:03:24;4.20;99.90
25320;DHT22;13256;49.012;8.610;2024-02-28T07:06:01;4.20;99.90
25320;DHT22;13256;49.012;8.610;2024-02-28T07:08:27;4.20;99.90
25320;DHT22;13256;49.012;8.610;2024-02-28T07:10:54;4.30;99.90
25320;DHT22;13256;49.012;8.610;2024-02-28T07:13:21;4.30;99.90
25320;DHT22;13256;49.012;8.610;2024-02-28T07:15:48;4.30;99.90
25320;DHT22;13256;49.012;8.610;2024-02-28T07:18:15;4.20;99.90
25320;DHT22;13256;49.012;8.610;2024-02-28T07:20:42;4.20;99.90
25320;DHT22;13256;49.012;8.610;2024-02-28T07:23:10;4.20;99.90
25320;DHT22;13256;49.012;8.610;2024-02-28T07:25:37;4.20;99.90
25320;DHT22;13256;49.012;8.610;2024-02-28T07:28:04;4.20;99.90
25320;DHT22;13256;49.012;8.610;2024-02-28T07:30:31;4.30;99.90
25320;DHT22;13256;49.012;8.610;2024-02-28T07:33:04;4.40;99.90
25320;DHT22;13256;49.012;8.610;2024-02-28T07:35:31;4.40;99.90
25320;DHT22;13256;49.012;8.610;2024-02-28T07:37:57;4.50;99.90
25320;DHT22;13256;49.012;8.610;2024-02-28T07:40:25;4.60;99.90
25320;DHT22;13256;49.012;8.610;2024-02-28T07:42:53;4.70;99.90
25320;DHT22;13256;49.012;8.610;2024-02-28T07:45:20;4.70;99.90
25320;DHT22;13256;49.012;8.610;2024-02-28T07:47:49;4.80;99.90
25320;DHT22;13256;49.012;8.610;2024-02-28T07:50:20;4.80;99.90
25320;DHT22;13256;49.012;8.610;2024-02-28T07:52:47;4.90;99.90
25320;DHT22;13256;49.012;8.610;2024-02-28T07:55:17;5.00;99.90
25320;DHT22;13256;49.012;8.610;2024-02-28T07:57:44;5.00;99.90
25320;DHT22;13256;49.012;8.610;2024-02-28T08:00:12;5.00;99.90
25320;DHT22;13256;49.012;8.610;2024-02-28T08:02:39;5.00;99.90
25320;DHT22;13256;49.012;8.610;2024-02-28T08:05:06;4.90;99.90
25320;DHT22;13256;49.012;8.610;2024-02-28T08:07:41;5.00;99.90
25320;DHT22;13256;49.012;8.610;2024-02-28T08:10:10;5.00;99.90
25320;DHT22;13256;49.012;8.610;2024-02-28T08:12:38;5.10;99.90
25320;DHT22;13256;49.012;8.610;2024-02-28T08:15:05;5.20;99.90
25320;DHT22;13256;49.012;8.610;2024-02-28T08:17:34;5.20;99.90
25320;DHT22;13256;49.012;8.610;2024-02-28T08:20:00;5.20;99.90
25320;DHT22;13256;49.012;8.610;2024-02-28T08:22:27;5.30;99.90
25320;DHT22;13256;49.012;8.610;2024-02-28T08:24:58;5.20;99.90
25320;DHT22;13256;49.012;8.610;2024-02-28T08:27:32;5.20;99.90
25320;DHT22;13256;49.012;8.610;2024-02-28T08:30:02;5.30;99.90
25320;DHT22;13256;49.012;8.610;2024-02-28T08:32:30;5.40;99.90
25320;DHT22;13256;49.012;8.610;2024-02-28T08:34:57;5.60;99.90
25320;DHT22;13256;49.012;8.610;2024-02-28T08:37:29;5.70;99.90
25320;DHT22;13256;49.012;8.610;2024-02-28T08:39:56;5.60;99.90
25320;DHT22;13256;49.012;8.610;2024-02-28T08:42:26;5.60;99.90
25320;DHT22;13256;49.012;8.610;2024-02-28T08:44:53;5.60;99.90
25320;DHT22;13256;49.012;8.610;2024-02-28T08:47:24;5.60;99.90
25320;DHT22;13256;49.012;8.610;2024-02-28T08:49:56;5.70;99.90
25320;DHT22;13256;49.012;8.610;2024-02-28T08:52:23;5.70;99.90
25320;DHT22;13256;49.012;8.610;2024-02-28T08:54:50;5.90;99.90
25320;DHT22;13256;49.012;8.610;2024-02-28T08:57:17;6.10;99.90
25320;DHT22;13256;49.012;8.610;2024-02-28T08:59:47;6.20;99.90
25320;DHT22;13256;49.012;8.610;2024-02-28T09:02:17;6.40;99.90
25320;DHT22;13256;49.012;8.610;2024-02-28T09:04:44;6.60;99.90
25320;DHT22;13256;49.012;8.610;2024-02-28T09:07:12;6.80;99.90
25320;DHT22;13256;49.012;8.610;2024-02-28T09:09:41;7.00;99.90
25320;DHT22;13256;49.012;8.610;2024-02-28T09:12:08;7.20;99.90
25320;DHT22;13256;49.012;8.610;2024-02-28T09:14:42;7.30;99.90
25320;DHT22;13256;49.012;8.610;2024-02-28T09:17:12;7.50;99.90
25320;DHT22;13256;49.012;8.610;2024-02-28T09:19:38;7.50;99.90
25320;DHT22;13256;49.012;8.610;2024-02-28T09:22:05;7.70;99.90
25320;DHT22;13256;49.012;8.610;2024-02-28T09:24:37;7.90;99.90
25320;DHT22;13256;49.012;8.610;2024-02-28T09:27:14;8.00;99.90
25320;DHT22;13256;49.012;8.610;2024-02-28T09:29:41;8.00;99.90
25320;DHT22;13256;49.012;8.610;2024-02-28T09:32:07;7.90;99.90
25320;DHT22;13256;49.012;8.610;2024-02-28T09:34:37;7.90;99.90
25320;DHT22;13256;49.012;8.610;2024-02-28T09:37:04;8.00;99.90
25320;DHT22;13256;49.012;8.610;2024-02-28T09:39:31;8.00;99.90
25320;DHT22;13256;49.012;8.610;2024-02-28T09:42:03;8.10;99.90
25320;DHT22;13256;49.012;8.610;2024-02-28T09:44:31;8.10;99.90
25320;DHT22;13256;49.012;8.610;2024-02-28T09:47:03;8.30;99.90
25320;DHT22;13256;49.012;8.610;2024-02-28T09:49:30;8.40;99.90
25320;DHT22;13256;49.012;8.610;2024-02-28T09:52:05;8.50;99.90
25320;DHT22;13256;49.012;8.610;2024-02-28T09:54:37;8.70;99.90
25320;DHT22;13256;49.012;8.610;2024-02-28T09:57:04;9.00;99.90
25320;DHT22;13256;49.012;8.610;2024-02-28T09:59:35;9.20;99.90
25320;DHT22;13256;49.012;8.610;2024-02-28T10:02:21;9.20;99.90
25320;DHT22;13256;49.012;8.610;2024-02-28T10:04:49;9.30;99.90
25320;DHT22;13256;49.012;8.610;2024-02-28T10:07:16;9.30;99.90
25320;DHT22;13256;49.012;8.610;2024-02-28T10:09:43;9.20;99.90
25320;DHT22;13256;49.012;8.610;2024-02-28T10:12:10;9.20;99.90
25320;DHT22;13256;49.012;8.610;2024-02-28T10:14:41;9.30;99.90
25320;DHT22;13256;49.012;8.610;2024-02-28T10:17:08;9.40;99.90
25320;DHT22;13256;49.012;8.610;2024-02-28T10:19:41;9.50;99.90
25320;DHT22;13256;49.012;8.610;2024-02-28T10:22:08;9.60;99.90
25320;DHT22;13256;49.012;8.610;2024-02-28T10:24:35;9.60;99.90
25320;DHT22;13256;49.012;8.610;2024-02-28T10:27:04;9.70;99.90
25320;DHT22;13256;49.012;8.610;2024-02-28T10:29:31;9.70;99.90
25320;DHT22;13256;49.012;8.610;2024-02-28T10:32:00;9.80;99.90
25320;DHT22;13256;49.012;8.610;2024-02-28T10:34:30;9.80;99.90
25320;DHT22;13256;49.012;8.610;2024-02-28T10:36:58;9.70;99.90
25320;DHT22;13256;49.012;8.610;2024-02-28T10:39:25;9.60;99.90
25320;DHT22;13256;49.012;8.610;2024-02-28T10:41:53;9.60;99.90
25320;DHT22;13256;49.012;8.610;2024-02-28T10:44:20;9.50;99.90
25320;DHT22;13256;49.012;8.610;2024-02-28T10:46:53;9.50;99.90
25320;DHT22;13256;49.012;8.610;2024-02-28T10:49:21;9.40;99.90
25320;DHT22;13256;49.012;8.610;2024-02-28T10:51:56;9.40;99.90
25320;DHT22;13256;49.012;8.610;2024-02-28T10:54:24;9.30;99.90
25320;DHT22;13256;49.012;8.610;2024-02-28T10:56:51;9.20;99.90
25320;DHT22;13256;49.012;8.610;2024-02-28T10:59:19;9.30;99.90
25320;DHT22;13256;49.012;8.610;2024-02-28T11:01:51;9.30;99.90
25320;DHT22;13256;49.012;8.610;2024-02-28T11:04:22;9.40;99.90
25320;DHT22;13256;49.012;8.610;2024-02-28T11:39:07;9.40;99.90
25320;DHT22;13256;49.012;8.610;2024-02-28T12:25:33;11.10;99.90
25320;DHT22;13256;49.012;8.610;2024-02-28T13:29:37;14.90;99.90
25320;DHT22;13256;49.012;8.610;2024-02-28T15:23:49;13.30;99.90
25320;DHT22;13256;49.012;8.610;2024-02-28T16:25:16;10.70;99.90
25320;DHT22;13256;49.012;8.610;2024-02-28T16:54:22;10.10;99.90
25320;DHT22;13256;49.012;8.610;2024-02-28T16:59:52;9.90;99.90
25320;DHT22;13256;49.012;8.610;2024-02-28T17:14:03;9.50;99.90
25320;DHT22;13256;49.012;8.610;2024-02-28T17:22:23;9.10;99.90
25320;DHT22;13256;49.012;8.610;2024-02-28T17:24:51;9.00;99.90
25320;DHT22;13256;49.012;8.610;2024-02-28T17:44:53;7.90;99.90
25320;DHT22;13256;49.012;8.610;2024-02-28T17:47:42;7.80;99.90
25320;DHT22;13256;49.012;8.610;2024-02-28T18:04:37;7.30;99.90
25320;DHT22;13256;49.012;8.610;2024-02-28T18:07:04;7.30;99.90
25320;DHT22;13256;49.012;8.610;2024-02-28T18:09:32;7.40;99.90
25320;DHT22;13256;49.012;8.610;2024-02-28T18:11:58;7.40;99.90
25320;DHT22;13256;49.012;8.610;2024-02-28T18:14:26;7.40;99.90
25320;DHT22;13256;49.012;8.610;2024-02-28T18:16:52;7.40;99.90
25320;DHT22;13256;49.012;8.610;2024-02-28T18:19:22;7.50;99.90
25320;DHT22;13256;49.012;8.610;2024-02-28T18:21:49;7.50;99.90
25320;DHT22;13256;49.012;8.610;2024-02-28T18:27:04;7.50;99.90
25320;DHT22;13256;49.012;8.610;2024-02-28T18:29:47;7.50;99.90
25320;DHT22;13256;49.012;8.610;2024-02-28T18:49:39;7.30;99.90
25320;DHT22;13256;49.012;8.610;2024-02-28T19:15:14;6.90;99.90
25320;DHT22;13256;49.012;8.610;2024-02-28T19:17:41;6.90;99.90
25320;DHT22;13256;49.012;8.610;2024-02-28T19:20:08;6.90;99.90
25320;DHT22;13256;49.012;8.610;2024-02-28T19:22:37;6.90;99.90
25320;DHT22;13256;49.012;8.610;2024-02-28T19:25:05;6.90;99.90
25320;DHT22;13256;49.012;8.610;2024-02-28T19:27:32;6.90;99.90
25320;DHT22;13256;49.012;8.610;2024-02-28T19:30:02;6.80;99.90
25320;DHT22;13256;49.012;8.610;2024-02-28T19:32:33;6.80;99.90
25320;DHT22;13256;49.012;8.610;2024-02-28T19:35:01;6.70;99.90
25320;DHT22;13256;49.012;8.610;2024-02-28T19:37:33;6.60;99.90
25320;DHT22;13256;49.012;8.610;2024-02-28T19:40:01;6.50;99.90
25320;DHT22;13256;49.012;8.610;2024-02-28T19:42:40;6.40;99.90
25320;DHT22;13256;49.012;8.610;2024-02-28T19:45:06;6.30;99.90
25320;DHT22;13256;49.012;8.610;2024-02-28T19:47:33;6.30;99.90
25320;DHT22;13256;49.012;8.610;2024-02-28T19:50:00;6.20;99.90
25320;DHT22;13256;49.012;8.610;2024-02-28T19:52:27;6.10;99.90
25320;DHT22;13256;49.012;8.610;2024-02-28T19:54:54;6.00;99.90
25320;DHT22;13256;49.012;8.610;2024-02-28T19:57:24;6.00;99.90
25320;DHT22;13256;49.012;8.610;2024-02-28T19:59:51;5.90;99.90
25320;DHT22;13256;49.012;8.610;2024-02-28T20:02:18;5.90;99.90
25320;DHT22;13256;49.012;8.610;2024-02-28T20:04:45;5.80;99.90
25320;DHT22;13256;49.012;8.610;2024-02-28T20:07:12;5.80;99.90
25320;DHT22;13256;49.012;8.610;2024-02-28T20:09:40;5.70;99.90
25320;DHT22;13256;49.012;8.610;2024-02-28T20:12:07;5.60;99.90
25320;DHT22;13256;49.012;8.610;2024-02-28T20:17:49;5.40;99.90
25320;DHT22;13256;49.012;8.610;2024-02-28T20:20:22;5.40;99.90
25320;DHT22;13256;49.012;8.610;2024-02-28T20:22:51;5.30;99.90
25320;DHT22;13256;49.012;8.610;2024-02-28T20:25:22;5.30;99.90
25320;DHT22;13256;49.012;8.610;2024-02-28T20:27:49;5.20;99.90
25320;DHT22;13256;49.012;8.610;2024-02-28T20:30:16;5.30;99.90
25320;DHT22;13256;49.012;8.610;2024-02-28T20:32:43;5.30;99.90
25320;DHT22;13256;49.012;8.610;2024-02-28T20:35:11;5.30;99.90
25320;DHT22;13256;49.012;8.610;2024-02-28T20:37:41;5.30;99.90
25320;DHT22;13256;49.012;8.610;2024-02-28T20:43:01;5.30;99.90
25320;DHT22;13256;49.012;8.610;2024-02-28T20:45:35;5.30;99.90
25320;DHT22;13256;49.012;8.610;2024-02-28T20:48:03;5.20;99.90
25320;DHT22;13256;49.012;8.610;2024-02-28T20:50:33;5.10;99.90
25320;DHT22;13256;49.012;8.610;2024-02-28T20:53:09;5.10;99.90
25320;DHT22;13256;49.012;8.610;2024-02-28T20:55:38;5.00;99.90
25320;DHT22;13256;49.012;8.610;2024-02-28T21:00:53;4.90;99.90
25320;DHT22;13256;49.012;8.610;2024-02-28T21:03:24;4.80;99.90
25320;DHT22;13256;49.012;8.610;2024-02-28T21:05:54;4.70;99.90
25320;DHT22;13256;49.012;8.610;2024-02-28T21:08:21;4.60;99.90
25320;DHT22;13256;49.012;8.610;2024-02-28T21:10:55;4.60;99.90
25320;DHT22;13256;49.012;8.610;2024-02-28T21:13:30;4.50;99.90
25320;DHT22;13256;49.012;8.610;2024-02-28T21:15:57;4.40;99.90
25320;DHT22;13256;49.012;8.610;2024-02-28T21:18:24;4.40;99.90
25320;DHT22;13256;49.012;8.610;2024-02-28T21:20:55;4.30;99.90
25320;DHT22;13256;49.012;8.610;2024-02-28T21:23:26;4.40;99.90
25320;DHT22;13256;49.012;8.610;2024-02-28T21:26:20;4.20;99.90
25320;DHT22;13256;49.012;8.610;2024-02-28T21:28:46;4.20;99.90
25320;DHT22;13256;49.012;8.610;2024-02-28T21:31:16;4.10;99.90
25320;DHT22;13256;49.012;8.610;2024-02-28T21:33:43;4.00;99.90
25320;DHT22;13256;49.012;8.610;2024-02-28T21:36:15;4.00;99.90
25320;DHT22;13256;49.012;8.610;2024-02-28T21:38:45;4.00;99.90
25320;DHT22;13256;49.012;8.610;2024-02-28T21:41:11;3.90;99.90
25320;DHT22;13256;49.012;8.610;2024-02-28T21:43:40;3.90;99.90
25320;DHT22;13256;49.012;8.610;2024-02-28T21:46:06;3.90;99.90
25320;DHT22;13256;49.012;8.610;2024-02-28T21:48:38;4.00;99.90
25320;DHT22;13256;49.012;8.610;2024-02-28T21:51:07;4.00;99.90
25320;DHT22;13256;49.012;8.610;2024-02-28T21:53:33;4.00;99.90
25320;DHT22;13256;49.012;8.610;2024-02-28T21:58:45;4.00;99.90
25320;DHT22;13256;49.012;8.610;2024-02-28T22:01:15;4.00;99.90
25320;DHT22;13256;49.012;8.610;2024-02-28T22:03:44;4.00;99.90
25320;DHT22;13256;49.012;8.610;2024-02-28T22:06:11;3.80;99.90
25320;DHT22;13256;49.012;8.610;2024-02-28T22:08:38;3.80;99.90
25320;DHT22;13256;49.012;8.610;2024-02-28T22:11:06;3.80;99.90
25320;DHT22;13256;49.012;8.610;2024-02-28T22:13:38;3.80;99.90
25320;DHT22;13256;49.012;8.610;2024-02-28T22:16:04;3.70;99.90
25320;DHT22;13256;49.012;8.610;2024-02-28T22:18:31;3.60;99.90
25320;DHT22;13256;49.012;8.610;2024-02-28T22:20:57;3.60;99.90
25320;DHT22;13256;49.012;8.610;2024-02-28T22:23:27;3.50;99.90
25320;DHT22;13256;49.012;8.610;2024-02-28T22:26:21;3.40;99.90
25320;DHT22;13256;49.012;8.610;2024-02-28T22:28:50;3.40;99.90
25320;DHT22;13256;49.012;8.610;2024-02-28T22:31:20;3.30;99.90
25320;DHT22;13256;49.012;8.610;2024-02-28T22:33:47;3.20;99.90
25320;DHT22;13256;49.012;8.610;2024-02-28T22:36:18;3.20;99.90
25320;DHT22;13256;49.012;8.610;2024-02-28T22:38:45;3.20;99.90
25320;DHT22;13256;49.012;8.610;2024-02-28T22:41:22;3.20;99.90
25320;DHT22;13256;49.012;8.610;2024-02-28T22:43:49;3.20;99.90
25320;DHT22;13256;49.012;8.610;2024-02-28T22:46:23;3.10;99.90
25320;DHT22;13256;49.012;8.610;2024-02-28T22:54:44;3.00;99.90
25320;DHT22;13256;49.012;8.610;2024-02-28T22:57:14;2.90;99.90
25320;DHT22;13256;49.012;8.610;2024-02-28T22:59:40;2.80;99.90
25320;DHT22;13256;49.012;8.610;2024-02-28T23:02:39;2.80;99.90
25320;DHT22;13256;49.012;8.610;2024-02-28T23:13:12;2.90;99.90
25320;DHT22;13256;49.012;8.610;2024-02-28T23:18:47;2.90;99.90
25320;DHT22;13256;49.012;8.610;2024-02-28T23:21:18;2.90;99.90
25320;DHT22;13256;49.012;8.610;2024-02-28T23:23:45;2.90;99.90
25320;DHT22;13256;49.012;8.610;2024-02-28T23:26:12;2.90;99.90
25320;DHT22;13256;49.012;8.610;2024-02-28T23:28:38;2.90;99.90
25320;DHT22;13256;49.012;8.610;2024-02-28T23:31:05;3.00;99.90
25320;DHT22;13256;49.012;8.610;2024-02-28T23:33:32;3.00;99.90
25320;DHT22;13256;49.012;8.610;2024-02-28T23:35:58;3.10;99.90
25320;DHT22;13256;49.012;8.610;2024-02-28T23:38:28;3.10;99.90
25320;DHT22;13256;49.012;8.610;2024-02-28T23:40:59;3.10;99.90